»·PEaware :: N13M KBUR-KFUL

N13M :: KBUR-KFUL

FLIGHT INFORMATION

Flight Status: Arrived
Operator: Privately registered:
United States
More flights under this callsign
Pilot: Zhuojun Y. (28503)
Aircraft: ROBIN DR-400
(DR40)
More flights by this aircraft type
Origin: KBUR Bob Hope-Burbank
United States
Destination: KFUL Fullerton Mun
United States
More flights between these airports :: More routes between these airports
Route: +
File this flight plan on PilotEdge
Remarks: CAT9
Altitude:
(Current/Filed)
0ft
Speed:
(Current/Filed)
0kts
Departed: 27-Mar-20 05:39 PM
Arrived: 27-Mar-20 06:15 PM
Distance/Time
Traveled:
27nm/0:35
Distance/Time
To Go:
Arrived

Flight Plot

Page will automatically refresh every two minutes.


Map Options




Map Legend


Flown Route
Filed Route
Departure Airport
Arrival Airport
Navaid (VOR, NDB)
Fix

Horizontal Profiles

Position Reports

Time Latitude Longitude Heading Altitude Ground
Speed
27-Mar-20 17:25 34.200215 -118.358847 257 737ft 0kts
27-Mar-20 17:26 34.200215 -118.358847 257 737ft 0kts
27-Mar-20 17:27 34.200215 -118.358847 257 737ft 0kts
27-Mar-20 17:28 34.200215 -118.358847 257 737ft 0kts
27-Mar-20 17:29 34.200342 -118.359162 346 737ft 6kts
27-Mar-20 17:30 34.201711 -118.359656 341 737ft 0kts
27-Mar-20 17:31 34.201717 -118.359658 342 737ft 0kts
27-Mar-20 17:32 34.204030 -118.359320 346 737ft 14kts
27-Mar-20 17:33 34.208791 -118.360640 347 737ft 18kts
27-Mar-20 17:34 34.211950 -118.361339 37 737ft 0kts
27-Mar-20 17:35 34.211950 -118.361339 37 737ft 0kts
27-Mar-20 17:36 34.211950 -118.361339 37 737ft 0kts
27-Mar-20 17:37 34.212001 -118.361293 36 737ft 2kts
27-Mar-20 17:38 34.207545 -118.359155 166 737ft 64kts
27-Mar-20 17:39 34.188835 -118.353642 164 1283ft 92kts
27-Mar-20 17:40 34.176464 -118.331273 88 2421ft 96kts
27-Mar-20 17:41 34.171043 -118.304076 110 1885ft 75kts
27-Mar-20 17:42 34.163881 -118.284777 115 1203ft 71kts
27-Mar-20 17:43 34.163215 -118.266870 107 972ft 58kts
27-Mar-20 17:44 34.155903 -118.245110 118 1541ft 82kts
27-Mar-20 17:45 34.145309 -118.219075 110 2089ft 94kts
27-Mar-20 17:46 34.136246 -118.189228 110 2371ft 103kts
27-Mar-20 17:47 34.128043 -118.166304 119 2101ft 92kts
27-Mar-20 17:48 34.117684 -118.142630 113 1940ft 75kts
27-Mar-20 17:49 34.111909 -118.119515 100 1878ft 72kts
27-Mar-20 17:50 34.108252 -118.096347 99 1872ft 72kts
27-Mar-20 17:51 34.106180 -118.072594 94 1892ft 72kts
27-Mar-20 17:52 34.104030 -118.049023 123 1902ft 73kts
27-Mar-20 17:53 34.084429 -118.038549 169 2200ft 77kts
27-Mar-20 17:54 34.073079 -118.024285 83 2697ft 73kts
27-Mar-20 17:55 34.076859 -118.000471 77 3204ft 74kts
27-Mar-20 17:56 34.080002 -117.971826 85 3348ft 104kts
27-Mar-20 17:57 34.081784 -117.932533 88 3345ft 136kts
27-Mar-20 17:58 34.081303 -117.888091 90 3342ft 133kts
27-Mar-20 17:59 34.079188 -117.846618 95 3343ft 125kts
27-Mar-20 18:00 34.074291 -117.808044 112 2727ft 110kts
27-Mar-20 18:01 34.051503 -117.804546 201 1646ft 87kts
27-Mar-20 18:02 34.031709 -117.816937 211 1195ft 80kts
27-Mar-20 18:03 34.013499 -117.830547 223 1123ft 77kts
27-Mar-20 18:04 33.996385 -117.844422 206 1222ft 74kts
27-Mar-20 18:05 33.977697 -117.854800 220 1454ft 74kts
27-Mar-20 18:07 33.970872 -117.879333 230 1581ft 83kts
27-Mar-20 18:08 33.956556 -117.900163 217 1762ft 84kts
27-Mar-20 18:09 33.932870 -117.906922 189 1644ft 89kts
27-Mar-20 18:10 33.912515 -117.910641 191 1140ft 84kts
27-Mar-20 18:11 33.893856 -117.915987 200 973ft 87kts
27-Mar-20 18:12 33.880506 -117.932231 263 770ft 89kts
27-Mar-20 18:13 33.876683 -117.956288 257 341ft 69kts
27-Mar-20 18:14 33.872818 -117.975703 257 99ft 58kts
27-Mar-20 18:15 33.872217 -117.981401 339 94ft 0kts
27-Mar-20 18:16 33.872217 -117.981401 339 94ft 0kts
27-Mar-20 18:17 33.872955 -117.981038 70 94ft 9kts
27-Mar-20 18:18 33.873169 -117.978314 70 94ft 0kts
27-Mar-20 18:19 33.873169 -117.978314 70 94ft 0kts
27-Mar-20 18:20 33.873169 -117.978314 70 94ft 0kts
27-Mar-20 18:21 33.873169 -117.978314 70 94ft 0kts
27-Mar-20 18:22 33.873169 -117.978314 70 94ft 0kts
27-Mar-20 18:22 33.873169 -117.978314 70 94ft 0kts
27-Mar-20 18:24 33.873169 -117.978314 70 94ft 0kts
27-Mar-20 18:25 33.873169 -117.978314 70 94ft 0kts
27-Mar-20 18:25 33.873169 -117.978314 70 94ft 0kts
27-Mar-20 18:26 33.873169 -117.978314 70 94ft 0kts
27-Mar-20 18:28 33.873169 -117.978314 70 94ft 0kts
27-Mar-20 18:28 33.873169 -117.978314 70 94ft 0kts

Navigation Log

Ident Type
Flight plan parsing failed, navigation log unavailable